Time;durP1;ratioP1;P1;durP2;ratioP2;P2;SDS_P1;SDS_P2;PMS_P1;PMS_P2;Temp;Humidity;BMP_temperature;BMP_pressure;BME280_temperature;BME280_humidity;BME280_pressure;Samples;Min_cycle;Max_cycle;Signal;HPM_P1;HPM_P2
2021/12/18 00:00:31;;;;;;;7.13;3.65;;;8.40;97.60;;;;;;5032828;28;20040;-64
2021/12/18 00:02:56;;;;;;;5.30;3.15;;;8.40;97.60;;;;;;5031892;28;20029;-63
2021/12/18 00:05:22;;;;;;;5.13;3.75;;;8.40;97.60;;;;;;5032923;28;20022;-63
2021/12/18 00:07:47;;;;;;;4.45;2.97;;;8.40;97.60;;;;;;5033320;28;20032;-65
2021/12/18 00:10:13;;;;;;;4.30;3.05;;;8.40;97.50;;;;;;5032308;28;20071;-63
2021/12/18 00:12:47;;;;;;;6.38;2.80;;;8.40;97.50;;;;;;5032065;28;20120;-65
2021/12/18 00:15:13;;;;;;;5.68;3.33;;;8.50;97.50;;;;;;5032863;28;20025;-64
2021/12/18 00:17:38;;;;;;;4.72;3.15;;;8.50;97.40;;;;;;5033443;28;20028;-64
2021/12/18 00:20:04;;;;;;;5.45;2.78;;;8.50;97.50;;;;;;5031850;28;20852;-65
2021/12/18 00:22:29;;;;;;;6.38;3.28;;;8.50;97.40;;;;;;5033249;28;20029;-64
2021/12/18 00:24:55;;;;;;;5.30;3.10;;;8.50;97.50;;;;;;5030874;28;20069;-64
2021/12/18 00:27:20;;;;;;;5.32;2.60;;;8.50;97.40;;;;;;5031952;28;20056;-64
2021/12/18 00:29:46;;;;;;;6.32;3.17;;;8.50;97.40;;;;;;5032317;28;20029;-64
2021/12/18 00:32:11;;;;;;;5.57;3.28;;;8.60;97.40;;;;;;5033033;28;20025;-64
2021/12/18 00:34:39;;;;;;;7.30;3.50;;;8.60;97.40;;;;;;5032391;28;20060;-64
2021/12/18 00:37:05;;;;;;;5.03;3.28;;;8.50;97.50;;;;;;5027523;28;20157;-64
2021/12/18 00:39:32;;;;;;;5.05;2.95;;;8.50;97.40;;;;;;5023615;28;20116;-64
2021/12/18 00:42:19;;;;;;;5.55;3.35;;;8.50;97.40;;;;;;5032285;28;20033;-64
2021/12/18 00:44:44;;;;;;;5.05;2.92;;;8.50;97.40;;;;;;5031428;28;20079;-64
2021/12/18 00:47:10;;;;;;;6.43;3.03;;;8.50;97.40;;;;;;5032166;28;20029;-64
2021/12/18 00:49:36;;;;;;;5.82;3.60;;;8.50;97.40;;;;;;5032752;28;20374;-65
2021/12/18 00:52:03;;;;;;;6.05;3.20;;;8.60;97.40;;;;;;5027934;28;20082;-64
2021/12/18 00:54:28;;;;;;;4.43;2.90;;;8.60;97.30;;;;;;5032817;28;20033;-64
2021/12/18 00:56:54;;;;;;;6.80;3.13;;;8.50;97.30;;;;;;5031281;28;20029;-65
2021/12/18 00:59:19;;;;;;;6.40;3.58;;;8.50;97.40;;;;;;5031629;28;20046;-65
2021/12/18 01:01:46;;;;;;;5.63;3.00;;;8.50;97.40;;;;;;5031508;28;20021;-65
2021/12/18 01:04:12;;;;;;;4.35;2.75;;;8.50;97.40;;;;;;5031234;28;20029;-65
2021/12/18 01:06:38;;;;;;;4.82;2.70;;;8.60;97.40;;;;;;5031227;28;20484;-64
2021/12/18 01:09:04;;;;;;;5.25;3.10;;;8.60;97.30;;;;;;5032455;28;20025;-65
2021/12/18 01:11:43;;;;;;;5.20;2.78;;;8.50;97.30;;;;;;5031876;28;20025;-64
2021/12/18 01:14:28;;;;;;;5.60;3.10;;;8.50;97.50;;;;;;5032238;28;20030;-64
2021/12/18 01:24:52;;;;;;;4.53;3.00;;;8.60;97.40;;;;;;5031344;28;20037;-63
2021/12/18 01:27:18;;;;;;;4.72;2.85;;;8.60;97.40;;;;;;5031048;28;20563;-63
2021/12/18 01:29:44;;;;;;;5.00;2.70;;;8.60;97.40;;;;;;5031268;28;20108;-64
2021/12/18 01:32:09;;;;;;;5.22;3.08;;;8.60;97.40;;;;;;5032354;28;20116;-64
2021/12/18 01:34:36;;;;;;;4.50;2.60;;;8.60;97.40;;;;;;5032652;28;20072;-64
2021/12/18 01:37:02;;;;;;;3.92;2.70;;;8.60;97.40;;;;;;5030879;28;20521;-64
2021/12/18 01:39:27;;;;;;;4.32;2.75;;;8.60;97.40;;;;;;5031417;28;20121;-64
2021/12/18 01:42:49;;;;;;;3.85;2.42;;;8.60;97.40;;;;;;5030685;28;20087;-64
2021/12/18 01:44:58;;;;;;;3.17;2.15;;;8.60;97.40;;;;;;5031809;28;20121;-64
2021/12/18 01:51:16;;;;;;;3.10;2.10;;;8.60;97.50;;;;;;5027981;28;20044;-65
2021/12/18 01:52:56;;;;;;;4.28;2.35;;;8.60;97.50;;;;;;5028201;28;20547;-64
2021/12/18 01:55:33;;;;;;;5.35;2.60;;;8.60;97.50;;;;;;5026328;28;20025;-64
2021/12/18 01:57:59;;;;;;;4.10;2.45;;;8.60;97.60;;;;;;5024871;28;20064;-65
2021/12/18 02:00:31;;;;;;;4.35;2.58;;;8.60;97.70;;;;;;5030841;28;20041;-64
2021/12/18 02:02:57;;;;;;;4.38;2.78;;;8.60;97.70;;;;;;5030876;28;20030;-64
2021/12/18 02:05:23;;;;;;;3.33;2.42;;;8.60;97.70;;;;;;5030903;28;20032;-64
2021/12/18 02:07:49;;;;;;;3.28;2.35;;;8.60;97.70;;;;;;5031749;28;20025;-64
2021/12/18 02:10:19;;;;;;;3.78;2.15;;;8.60;97.80;;;;;;5030824;28;20039;-64
2021/12/18 02:20:55;;;;;;;2.90;1.90;;;8.60;97.90;;;;;;5029951;28;20076;-64
2021/12/18 02:23:20;;;;;;;3.65;2.05;;;8.50;97.90;;;;;;5029329;28;20026;-64
2021/12/18 02:25:47;;;;;;;3.90;2.63;;;8.50;97.90;;;;;;5029640;28;20377;-64
2021/12/18 02:28:19;;;;;;;4.30;2.40;;;8.60;97.90;;;;;;5030948;28;20029;-65
2021/12/18 02:30:47;;;;;;;6.43;2.60;;;8.60;97.90;;;;;;5028863;28;20044;-64
2021/12/18 02:33:13;;;;;;;4.18;2.72;;;8.60;97.90;;;;;;5029688;28;20054;-64
2021/12/18 02:35:46;;;;;;;4.40;2.50;;;8.60;98.00;;;;;;5029557;28;20072;-64
2021/12/18 02:38:19;;;;;;;4.65;2.70;;;8.60;98.10;;;;;;5030325;28;20049;-65
2021/12/18 02:43:15;;;;;;;5.00;3.60;;;8.70;98.00;;;;;;5029957;28;20042;-64
2021/12/18 02:45:40;;;;;;;4.78;3.10;;;8.70;98.10;;;;;;5029424;28;20029;-64
2021/12/18 02:48:06;;;;;;;4.35;2.92;;;8.70;98.10;;;;;;5029891;28;20033;-64
2021/12/18 02:50:32;;;;;;;4.63;2.83;;;8.70;98.10;;;;;;5030644;28;20029;-64
2021/12/18 02:52:57;;;;;;;5.72;3.05;;;8.70;98.00;;;;;;5029686;28;20030;-64
2021/12/18 02:55:23;;;;;;;4.43;2.83;;;8.70;98.10;;;;;;5029301;28;20029;-64
2021/12/18 02:57:48;;;;;;;3.83;2.50;;;8.60;98.10;;;;;;5030093;28;20076;-64
2021/12/18 03:00:16;;;;;;;4.93;2.80;;;8.60;98.10;;;;;;5029863;28;20036;-64
2021/12/18 03:02:44;;;;;;;3.45;2.38;;;8.50;98.20;;;;;;5030735;28;20032;-64
2021/12/18 03:05:17;;;;;;;4.10;2.63;;;8.50;98.20;;;;;;5029893;28;20034;-64
2021/12/18 03:07:42;;;;;;;5.85;3.40;;;8.60;98.30;;;;;;5029915;28;20447;-64
2021/12/18 03:24:08;;;;;;;3.88;2.53;;;8.60;98.30;;;;;;5028355;28;20038;-64
2021/12/18 03:26:33;;;;;;;5.38;2.72;;;8.70;98.30;;;;;;5033074;28;20500;-63
2021/12/18 03:28:59;;;;;;;4.53;2.70;;;8.60;98.30;;;;;;5034194;28;20083;-63
2021/12/18 03:31:24;;;;;;;6.43;3.10;;;8.70;98.30;;;;;;5033517;28;20040;-63
2021/12/18 03:33:50;;;;;;;4.35;2.63;;;8.70;98.30;;;;;;5049369;28;20177;-64
2021/12/18 03:36:15;;;;;;;3.92;2.90;;;8.70;98.30;;;;;;5032311;28;20087;-63
2021/12/18 03:38:40;;;;;;;5.25;3.08;;;8.70;98.40;;;;;;5033135;28;20026;-64
2021/12/18 03:41:06;;;;;;;6.45;3.13;;;8.70;98.40;;;;;;5033260;28;20049;-63
2021/12/18 03:43:31;;;;;;;5.90;3.00;;;8.70;98.40;;;;;;5032381;28;20550;-64
2021/12/18 03:45:57;;;;;;;4.88;3.03;;;8.70;98.50;;;;;;5031682;28;20017;-64
2021/12/18 03:48:23;;;;;;;5.22;3.10;;;8.70;98.50;;;;;;5031882;28;20433;-64
2021/12/18 03:50:50;;;;;;;7.85;3.65;;;8.80;98.50;;;;;;5032171;28;20030;-64
2021/12/18 03:53:15;;;;;;;6.60;3.67;;;8.80;98.50;;;;;;5032729;28;20057;-64
2021/12/18 03:55:41;;;;;;;7.18;3.75;;;8.70;98.50;;;;;;5026888;28;20060;-63
2021/12/18 03:58:06;;;;;;;5.85;3.63;;;8.70;98.50;;;;;;5012447;28;20639;-63
2021/12/18 04:00:32;;;;;;;7.82;3.83;;;8.70;98.50;;;;;;5020556;28;20389;-64
2021/12/18 04:02:57;;;;;;;5.97;3.90;;;8.80;98.50;;;;;;5033933;28;20025;-64
2021/12/18 04:05:23;;;;;;;5.68;3.20;;;8.80;98.50;;;;;;5022922;28;20029;-63
2021/12/18 04:07:50;;;;;;;4.82;3.38;;;8.80;98.40;;;;;;5032139;28;20029;-64
2021/12/18 04:10:17;;;;;;;5.35;3.30;;;8.80;98.40;;;;;;5031745;28;20033;-64
2021/12/18 04:12:43;;;;;;;4.72;3.10;;;8.70;98.40;;;;;;5032858;28;20026;-64
2021/12/18 04:15:09;;;;;;;6.25;3.72;;;8.60;98.50;;;;;;5031821;28;20033;-65
2021/12/18 04:17:35;;;;;;;5.75;3.55;;;8.60;98.60;;;;;;5033461;28;20064;-64
2021/12/18 04:20:00;;;;;;;6.65;4.32;;;8.60;98.60;;;;;;5031859;28;20065;-64
2021/12/18 04:22:26;;;;;;;5.80;3.50;;;8.60;98.70;;;;;;5030282;28;20095;-64
2021/12/18 04:24:52;;;;;;;6.18;3.50;;;8.70;98.70;;;;;;5013571;28;20037;-64
2021/12/18 04:27:17;;;;;;;5.43;3.60;;;8.70;98.70;;;;;;5031484;28;20022;-64
2021/12/18 04:29:43;;;;;;;5.85;3.50;;;8.70;98.70;;;;;;5032563;28;20026;-64
2021/12/18 04:32:08;;;;;;;7.25;4.38;;;8.70;98.60;;;;;;5027512;28;20029;-65
2021/12/18 04:34:34;;;;;;;8.77;4.20;;;8.70;98.60;;;;;;5033345;28;20025;-64
2021/12/18 04:36:59;;;;;;;8.20;3.83;;;8.70;98.60;;;;;;5031344;28;20049;-64
2021/12/18 04:39:25;;;;;;;6.57;4.30;;;8.70;98.60;;;;;;5033191;28;20562;-64
2021/12/18 04:41:57;;;;;;;5.93;3.90;;;8.70;98.60;;;;;;5031812;28;20030;-64
2021/12/18 04:44:23;;;;;;;5.78;3.50;;;8.70;98.70;;;;;;5032990;28;20017;-64
2021/12/18 04:46:49;;;;;;;6.25;3.80;;;8.70;98.70;;;;;;5031273;28;20025;-64
2021/12/18 04:49:15;;;;;;;5.38;3.65;;;8.70;98.60;;;;;;5030749;28;20036;-64
2021/12/18 04:51:41;;;;;;;6.18;3.85;;;8.60;98.70;;;;;;5031698;28;20044;-64
2021/12/18 04:54:07;;;;;;;5.22;3.42;;;8.60;98.70;;;;;;5031835;28;20057;-64
2021/12/18 04:56:32;;;;;;;6.40;4.18;;;8.60;98.70;;;;;;5029779;28;20436;-64
2021/12/18 04:58:58;;;;;;;6.30;3.97;;;8.50;98.80;;;;;;5031956;28;20068;-65
2021/12/18 05:01:23;;;;;;;5.65;3.60;;;8.60;98.80;;;;;;5031722;28;20040;-65
2021/12/18 05:03:49;;;;;;;7.38;3.92;;;8.60;98.80;;;;;;5031712;28;20096;-65
2021/12/18 05:06:15;;;;;;;7.35;4.05;;;8.60;98.80;;;;;;5031151;28;20041;-65
2021/12/18 05:08:41;;;;;;;5.90;3.65;;;8.60;98.80;;;;;;5032315;28;20036;-65
2021/12/18 05:11:07;;;;;;;6.40;3.25;;;8.70;98.90;;;;;;5031459;28;20052;-64
2021/12/18 05:13:32;;;;;;;5.05;2.83;;;8.70;98.90;;;;;;5032294;28;20025;-64
2021/12/18 05:15:58;;;;;;;5.38;2.97;;;8.70;98.80;;;;;;5031555;28;20037;-64
2021/12/18 05:18:23;;;;;;;4.30;2.45;;;8.60;99.00;;;;;;5031039;28;20060;-64
2021/12/18 05:20:49;;;;;;;4.35;2.15;;;8.60;99.00;;;;;;5031322;28;20058;-64
2021/12/18 05:23:14;;;;;;;4.70;2.38;;;8.60;99.00;;;;;;5032212;28;20032;-64
2021/12/18 05:25:40;;;;;;;3.92;2.30;;;8.60;99.00;;;;;;5030849;28;20115;-64
2021/12/18 05:28:06;;;;;;;4.38;2.10;;;8.70;99.00;;;;;;5031874;28;20473;-64
2021/12/18 05:30:31;;;;;;;4.22;2.53;;;8.60;99.10;;;;;;5031015;28;20029;-64
2021/12/18 05:32:57;;;;;;;4.13;2.10;;;8.60;99.10;;;;;;5031814;28;20018;-63
2021/12/18 05:35:22;;;;;;;3.50;2.15;;;8.60;99.20;;;;;;5029647;28;20029;-64
2021/12/18 05:37:51;;;;;;;4.05;2.42;;;8.60;99.10;;;;;;5031152;28;20025;-63
2021/12/18 05:40:20;;;;;;;3.55;2.20;;;8.60;99.20;;;;;;5029108;28;20041;-64
2021/12/18 05:42:47;;;;;;;4.18;2.53;;;8.60;99.40;;;;;;5032052;28;20452;-64
2021/12/18 05:45:13;;;;;;;4.28;2.78;;;8.50;99.40;;;;;;5030531;28;20104;-65
2021/12/18 05:47:39;;;;;;;3.80;2.28;;;8.50;99.40;;;;;;5031830;28;20105;-65
2021/12/18 05:50:06;;;;;;;4.28;2.55;;;8.60;99.40;;;;;;5029857;28;20079;-64
2021/12/18 05:52:32;;;;;;;4.50;2.50;;;8.60;99.40;;;;;;5031373;28;20021;-64
2021/12/18 05:54:57;;;;;;;4.25;2.70;;;8.60;99.30;;;;;;5030220;28;20585;-64
2021/12/18 05:57:23;;;;;;;4.15;2.80;;;8.60;99.30;;;;;;5031170;28;20049;-64
2021/12/18 05:59:49;;;;;;;4.95;3.13;;;8.60;99.30;;;;;;5030644;28;20033;-64
2021/12/18 06:02:15;;;;;;;4.43;2.60;;;8.50;99.30;;;;;;5031651;28;20135;-64
2021/12/18 06:04:42;;;;;;;4.05;2.10;;;8.50;99.30;;;;;;5030494;28;20053;-64
2021/12/18 06:07:15;;;;;;;3.67;2.50;;;8.50;99.30;;;;;;5031501;28;20029;-64
2021/12/18 06:09:41;;;;;;;3.83;2.60;;;8.50;99.30;;;;;;5029048;28;20108;-64
2021/12/18 06:12:07;;;;;;;4.40;2.35;;;8.50;99.30;;;;;;5030326;28;20113;-64
2021/12/18 06:14:32;;;;;;;6.28;2.95;;;8.50;99.40;;;;;;5030614;28;20113;-64
2021/12/18 06:16:58;;;;;;;4.55;2.95;;;8.50;99.40;;;;;;5029756;28;20377;-65
2021/12/18 06:19:24;;;;;;;4.38;2.67;;;8.50;99.40;;;;;;5030761;28;20091;-64
2021/12/18 06:21:50;;;;;;;4.80;2.95;;;8.50;99.50;;;;;;5030601;28;20036;-63
2021/12/18 06:24:15;;;;;;;3.97;2.50;;;8.50;99.50;;;;;;5017521;28;20026;-64
2021/12/18 06:26:42;;;;;;;5.90;3.50;;;8.60;99.50;;;;;;5027739;28;20026;-64
2021/12/18 06:29:07;;;;;;;4.53;3.28;;;8.60;99.50;;;;;;5031250;28;20465;-64
2021/12/18 06:31:34;;;;;;;5.85;3.38;;;8.60;99.50;;;;;;5028088;28;20025;-64
2021/12/18 06:33:59;;;;;;;4.93;3.00;;;8.60;99.60;;;;;;5011808;28;20030;-64
2021/12/18 06:36:25;;;;;;;5.53;3.60;;;8.60;99.60;;;;;;5025531;28;20109;-64
2021/12/18 06:38:50;;;;;;;4.47;3.20;;;8.60;99.60;;;;;;5031274;28;20473;-64
2021/12/18 06:41:16;;;;;;;5.32;3.33;;;8.60;99.60;;;;;;5029101;28;20037;-64
2021/12/18 06:43:42;;;;;;;7.30;3.28;;;8.60;99.60;;;;;;5031189;28;20076;-65
2021/12/18 06:46:07;;;;;;;5.53;3.35;;;8.70;99.60;;;;;;5029152;28;20052;-64
2021/12/18 06:48:34;;;;;;;6.68;3.25;;;8.70;99.60;;;;;;5032403;28;20497;-64
2021/12/18 06:50:59;;;;;;;5.13;3.20;;;8.70;99.60;;;;;;5034280;28;20029;-65
2021/12/18 06:53:25;;;;;;;4.47;2.70;;;8.70;99.50;;;;;;5034585;28;20464;-65
2021/12/18 06:55:50;;;;;;;3.85;2.65;;;8.60;99.50;;;;;;5033736;28;20013;-64
2021/12/18 06:58:15;;;;;;;4.10;2.78;;;8.60;99.40;;;;;;5033043;28;20084;-63
2021/12/18 07:00:41;;;;;;;4.72;3.17;;;8.60;99.50;;;;;;5034260;28;20065;-63
2021/12/18 07:03:07;;;;;;;4.65;2.75;;;8.60;99.50;;;;;;5023872;28;20072;-64
2021/12/18 07:05:32;;;;;;;4.00;2.58;;;8.60;99.50;;;;;;5019270;28;20064;-63
2021/12/18 07:07:58;;;;;;;4.47;3.00;;;8.60;99.50;;;;;;5017829;28;20096;-63
2021/12/18 07:10:23;;;;;;;3.70;2.70;;;8.60;99.50;;;;;;5023653;28;20568;-63
2021/12/18 07:12:49;;;;;;;5.63;3.05;;;8.60;99.50;;;;;;5022036;28;20522;-63
2021/12/18 07:15:14;;;;;;;4.30;2.50;;;8.70;99.50;;;;;;5020297;28;20491;-62
2021/12/18 07:17:40;;;;;;;4.82;2.92;;;8.70;99.50;;;;;;5021186;28;20041;-61
2021/12/18 07:20:07;;;;;;;5.35;2.63;;;8.60;99.50;;;;;;5020761;28;20037;-62
2021/12/18 07:22:32;;;;;;;5.05;3.20;;;8.60;99.50;;;;;;5018805;28;20088;-61
2021/12/18 07:24:58;;;;;;;5.38;3.33;;;8.70;99.60;;;;;;5020515;28;20476;-62
2021/12/18 07:27:24;;;;;;;4.63;3.20;;;8.60;99.60;;;;;;5018960;28;20040;-62
2021/12/18 07:29:49;;;;;;;5.15;3.28;;;8.70;99.70;;;;;;5026462;28;22523;-62
2021/12/18 07:32:15;;;;;;;5.07;3.50;;;8.70;99.60;;;;;;5019346;28;20038;-63
2021/12/18 07:34:40;;;;;;;5.82;3.03;;;8.70;99.70;;;;;;5019639;28;20091;-63
2021/12/18 07:37:06;;;;;;;5.22;3.10;;;8.70;99.60;;;;;;5019166;28;20029;-63
2021/12/18 07:39:31;;;;;;;5.32;3.22;;;8.70;99.60;;;;;;5019966;28;22204;-63
2021/12/18 07:41:57;;;;;;;6.57;3.30;;;8.70;99.70;;;;;;5018364;28;20032;-63
2021/12/18 07:44:22;;;;;;;5.22;3.30;;;8.70;99.70;;;;;;5018236;28;20547;-63
2021/12/18 07:46:48;;;;;;;5.45;3.28;;;8.70;99.70;;;;;;5019869;28;20487;-63
2021/12/18 07:49:14;;;;;;;5.72;3.80;;;8.70;99.70;;;;;;5018627;28;20108;-63
2021/12/18 07:51:39;;;;;;;4.93;3.50;;;8.70;99.70;;;;;;5017820;28;20025;-63
2021/12/18 07:54:06;;;;;;;5.15;3.28;;;8.70;99.70;;;;;;5019134;28;20061;-63
2021/12/18 07:56:32;;;;;;;5.18;3.30;;;8.80;99.70;;;;;;5019112;28;20044;-63
2021/12/18 07:58:58;;;;;;;6.30;3.63;;;8.70;99.70;;;;;;5017469;28;20074;-63
2021/12/18 08:01:23;;;;;;;6.15;3.75;;;8.70;99.70;;;;;;5018518;28;20168;-63
2021/12/18 08:03:49;;;;;;;6.20;3.70;;;8.70;99.70;;;;;;5018899;28;20145;-63
2021/12/18 08:06:15;;;;;;;5.47;3.53;;;8.70;99.70;;;;;;5019732;28;20045;-63
2021/12/18 08:08:41;;;;;;;5.80;3.50;;;8.80;99.70;;;;;;5018347;28;20025;-63
2021/12/18 08:11:07;;;;;;;5.78;3.75;;;8.80;99.80;;;;;;5019926;28;20033;-62
2021/12/18 08:13:32;;;;;;;5.00;2.83;;;8.80;99.70;;;;;;5018491;28;20037;-63
2021/12/18 08:15:58;;;;;;;5.10;3.38;;;8.80;99.60;;;;;;5019267;28;20087;-63
2021/12/18 08:18:23;;;;;;;6.63;3.45;;;8.70;99.60;;;;;;5018232;28;20021;-63
2021/12/18 08:20:49;;;;;;;6.03;3.67;;;8.70;99.60;;;;;;5018381;28;20037;-63
2021/12/18 08:23:14;;;;;;;5.22;3.42;;;8.70;99.70;;;;;;5017600;28;20288;-63
2021/12/18 08:25:40;;;;;;;5.28;3.00;;;8.70;99.70;;;;;;5019110;28;20033;-63
2021/12/18 08:28:07;;;;;;;3.63;2.55;;;8.70;99.70;;;;;;5017540;28;20033;-63
2021/12/18 08:30:39;;;;;;;4.38;2.80;;;8.70;99.70;;;;;;5018581;28;20048;-63
2021/12/18 08:33:04;;;;;;;5.63;3.28;;;8.70;99.70;;;;;;5018703;28;20036;-63
2021/12/18 08:35:31;;;;;;;4.30;2.60;;;8.70;99.70;;;;;;5024414;28;20033;-63
2021/12/18 08:37:58;;;;;;;5.38;2.67;;;8.70;99.60;;;;;;5018773;28;20112;-63
2021/12/18 08:40:24;;;;;;;4.53;2.58;;;8.70;99.60;;;;;;5019642;28;20148;-63
2021/12/18 08:42:50;;;;;;;3.63;2.53;;;8.70;99.50;;;;;;5016823;28;20120;-63
2021/12/18 08:45:16;;;;;;;3.92;2.55;;;8.70;99.50;;;;;;5018057;28;20121;-63
2021/12/18 08:47:42;;;;;;;3.88;2.35;;;8.70;99.50;;;;;;5017428;28;20037;-63
2021/12/18 08:50:10;;;;;;;4.25;2.13;;;8.70;99.50;;;;;;5017748;28;20124;-63
2021/12/18 08:52:36;;;;;;;7.80;3.10;;;8.70;99.40;;;;;;5016776;28;20041;-63
2021/12/18 08:55:03;;;;;;;3.58;2.10;;;8.60;99.40;;;;;;5018407;28;20044;-63
2021/12/18 08:57:28;;;;;;;3.85;2.50;;;8.60;99.40;;;;;;5016473;28;20689;-63
2021/12/18 08:59:54;;;;;;;3.22;2.05;;;8.60;99.40;;;;;;5017681;28;20033;-63
2021/12/18 09:02:20;;;;;;;5.22;3.10;;;8.60;99.40;;;;;;5016192;28;20033;-63
2021/12/18 09:04:45;;;;;;;3.40;2.10;;;8.70;99.40;;;;;;5017966;28;20037;-63
2021/12/18 09:07:11;;;;;;;4.00;2.60;;;8.70;99.40;;;;;;5018542;28;20033;-63
2021/12/18 09:09:38;;;;;;;5.05;3.00;;;8.70;99.40;;;;;;5017622;28;20473;-63
2021/12/18 09:12:04;;;;;;;4.97;2.70;;;8.70;99.30;;;;;;5015349;28;20091;-63
2021/12/18 09:14:30;;;;;;;4.97;2.83;;;8.70;99.30;;;;;;5017712;28;20044;-63
2021/12/18 09:16:55;;;;;;;4.28;2.53;;;8.70;99.30;;;;;;5017235;28;20038;-62
2021/12/18 09:19:21;;;;;;;5.82;2.83;;;8.70;99.30;;;;;;5016414;28;20025;-63
2021/12/18 09:21:46;;;;;;;4.40;2.70;;;8.70;99.30;;;;;;5016927;28;20055;-63
2021/12/18 09:24:12;;;;;;;4.93;2.70;;;8.70;99.30;;;;;;5016601;28;20029;-63
2021/12/18 09:26:38;;;;;;;4.57;2.55;;;8.70;99.30;;;;;;5017469;28;20041;-63
2021/12/18 09:29:03;;;;;;;5.55;3.10;;;8.70;99.30;;;;;;5016566;28;20026;-63
2021/12/18 09:31:29;;;;;;;6.47;3.30;;;8.80;99.30;;;;;;5017555;28;20447;-64
2021/12/18 09:33:54;;;;;;;5.85;3.45;;;8.80;99.30;;;;;;5015325;28;20030;-63
2021/12/18 09:36:20;;;;;;;6.18;3.30;;;8.80;99.30;;;;;;5021226;28;20156;-64
2021/12/18 09:38:46;;;;;;;6.13;3.33;;;8.90;99.40;;;;;;5018839;28;20033;-64
2021/12/18 09:41:12;;;;;;;5.63;2.90;;;8.90;99.40;;;;;;5017375;28;20034;-64
2021/12/18 09:43:38;;;;;;;4.70;2.85;;;9.00;99.40;;;;;;5015135;28;20439;-64
2021/12/18 09:46:06;;;;;;;5.45;3.42;;;9.00;99.40;;;;;;5019177;28;20040;-65
2021/12/18 09:48:33;;;;;;;5.72;3.65;;;9.00;99.50;;;;;;5016480;28;20037;-64
2021/12/18 09:51:01;;;;;;;5.38;3.30;;;9.00;99.50;;;;;;5015909;28;20119;-64
2021/12/18 09:53:27;;;;;;;7.47;3.33;;;9.00;99.50;;;;;;5017405;28;20024;-64
2021/12/18 09:55:52;;;;;;;5.88;3.53;;;9.10;99.60;;;;;;5016895;28;20033;-63
2021/12/18 09:58:18;;;;;;;4.78;3.45;;;9.10;99.60;;;;;;5016398;28;20412;-64
2021/12/18 10:00:43;;;;;;;5.75;3.28;;;9.10;99.60;;;;;;5029632;28;20115;-64
2021/12/18 10:03:09;;;;;;;6.65;3.88;;;9.10;99.70;;;;;;5029104;28;20065;-64
2021/12/18 10:05:35;;;;;;;5.88;3.50;;;9.10;99.70;;;;;;5014795;28;20079;-63
2021/12/18 10:08:08;;;;;;;7.20;4.07;;;9.10;99.80;;;;;;5016661;28;20022;-64
2021/12/18 10:10:35;;;;;;;5.30;3.33;;;9.20;99.80;;;;;;5016463;28;20065;-64
2021/12/18 10:13:04;;;;;;;6.95;4.22;;;9.20;99.80;;;;;;5015419;28;20025;-63
2021/12/18 10:15:29;;;;;;;6.65;4.13;;;9.20;99.80;;;;;;5015866;28;20059;-63
2021/12/18 10:18:10;;;;;;;5.65;3.60;;;9.20;99.80;;;;;;5016634;28;20056;-62
2021/12/18 10:20:37;;;;;;;5.38;3.05;;;9.20;99.80;;;;;;5019292;28;20037;-63
2021/12/18 10:23:05;;;;;;;5.97;3.63;;;9.20;99.80;;;;;;5015283;28;20034;-62
2021/12/18 10:25:39;;;;;;;6.15;3.33;;;9.10;99.80;;;;;;5014534;28;20025;-63
2021/12/18 10:28:15;;;;;;;5.60;3.28;;;9.10;99.90;;;;;;5018108;28;20074;-62
2021/12/18 10:30:46;;;;;;;6.00;3.35;;;9.10;99.90;;;;;;5018437;28;20041;-62
2021/12/18 10:33:12;;;;;;;6.95;4.22;;;9.10;99.90;;;;;;5024027;28;20037;-63
2021/12/18 10:35:47;;;;;;;6.57;3.80;;;9.10;99.90;;;;;;5017769;28;20052;-63
2021/12/18 10:38:45;;;;;;;5.38;3.42;;;9.10;99.90;;;;;;5015144;28;20030;-63
2021/12/18 10:41:26;;;;;;;6.63;3.40;;;9.20;99.90;;;;;;5017016;28;20124;-64
2021/12/18 10:43:57;;;;;;;5.97;3.45;;;9.20;99.90;;;;;;5015847;28;20034;-62
2021/12/18 10:46:23;;;;;;;7.60;4.50;;;9.20;99.90;;;;;;5015191;28;20033;-63
2021/12/18 10:49:07;;;;;;;6.35;3.80;;;9.20;99.90;;;;;;5016465;28;20535;-63
2021/12/18 10:51:34;;;;;;;7.33;3.33;;;9.30;99.90;;;;;;5016552;28;20040;-63
2021/12/18 10:54:07;;;;;;;4.68;2.90;;;9.30;99.80;;;;;;5015183;28;20292;-63
2021/12/18 10:56:41;;;;;;;4.22;2.75;;;9.10;99.80;;;;;;5019974;28;20030;-64
2021/12/18 10:59:23;;;;;;;4.03;2.55;;;9.10;99.80;;;;;;5025581;28;20054;-63
2021/12/18 11:01:57;;;;;;;3.58;2.08;;;9.20;99.80;;;;;;5028642;28;20041;-63
2021/12/18 11:04:34;;;;;;;5.38;2.78;;;9.20;99.80;;;;;;5023062;28;20037;-63
2021/12/18 11:07:29;;;;;;;4.80;2.70;;;9.20;99.80;;;;;;5026016;28;20057;-63
2021/12/18 11:10:14;;;;;;;6.13;3.67;;;9.30;99.80;;;;;;5028243;28;20039;-63
2021/12/18 11:15:25;;;;;;;6.40;2.92;;;9.30;99.80;;;;;;5025381;28;20029;-63
2021/12/18 11:17:51;;;;;;;5.03;2.92;;;9.30;99.80;;;;;;5028487;28;20065;-63
2021/12/18 11:20:17;;;;;;;5.10;2.80;;;9.30;99.80;;;;;;5027333;28;20523;-63
2021/12/18 11:22:43;;;;;;;7.20;3.40;;;9.30;99.80;;;;;;5028722;28;20116;-63
2021/12/18 11:25:11;;;;;;;5.82;3.50;;;9.40;99.80;;;;;;5022178;28;20112;-63
2021/12/18 11:27:38;;;;;;;6.60;3.70;;;9.40;99.80;;;;;;5026659;28;20424;-62
2021/12/18 11:30:06;;;;;;;7.07;3.38;;;9.50;99.80;;;;;;5030048;28;20037;-62
2021/12/18 11:32:40;;;;;;;5.60;3.42;;;9.50;99.80;;;;;;5035861;28;20064;-63
2021/12/18 11:35:15;;;;;;;6.82;3.53;;;9.50;99.80;;;;;;5027734;28;20029;-63
2021/12/18 11:37:45;;;;;;;6.05;3.38;;;9.50;99.90;;;;;;5032088;28;20038;-63
2021/12/18 11:40:16;;;;;;;5.75;3.03;;;9.50;99.90;;;;;;5027470;28;20044;-63
2021/12/18 11:42:43;;;;;;;5.65;3.42;;;9.50;99.90;;;;;;5025043;28;20029;-64
2021/12/18 11:45:09;;;;;;;4.43;3.00;;;9.60;99.90;;;;;;5033876;28;20033;-63
2021/12/18 11:47:36;;;;;;;5.95;2.53;;;9.60;99.90;;;;;;5018573;28;20134;-63
2021/12/18 11:50:41;;;;;;;5.03;2.88;;;9.60;99.70;;;;;;5016183;28;20025;-64
2021/12/18 11:53:09;;;;;;;4.63;2.38;;;9.40;99.70;;;;;;5015755;28;20025;-64
2021/12/18 11:55:49;;;;;;;4.22;2.53;;;9.50;99.70;;;;;;5016114;28;20468;-64
2021/12/18 11:58:20;;;;;;;3.25;2.08;;;9.50;99.70;;;;;;5014887;28;20045;-63
2021/12/18 12:00:50;;;;;;;4.18;2.38;;;9.50;99.70;;;;;;5015735;28;20404;-64
2021/12/18 12:03:36;;;;;;;4.88;2.38;;;9.50;99.60;;;;;;5015835;28;20033;-64
2021/12/18 12:06:20;;;;;;;3.75;2.40;;;9.40;99.40;;;;;;5015144;28;20040;-63
2021/12/18 12:08:49;;;;;;;4.68;2.10;;;9.50;99.40;;;;;;5015821;28;20039;-64
2021/12/18 12:11:26;;;;;;;7.45;2.35;;;9.40;99.40;;;;;;5016262;28;20804;-64
2021/12/18 12:13:59;;;;;;;2.67;1.73;;;9.40;99.40;;;;;;5015288;28;20053;-64
2021/12/18 12:16:43;;;;;;;3.42;2.10;;;9.40;99.50;;;;;;5016079;28;20060;-64
2021/12/18 12:19:21;;;;;;;4.60;2.53;;;9.40;99.50;;;;;;5027527;28;20033;-63
2021/12/18 12:21:49;;;;;;;4.18;2.28;;;9.40;99.50;;;;;;5025083;28;20297;-63
2021/12/18 12:24:17;;;;;;;3.47;2.17;;;9.50;99.60;;;;;;5029670;28;20028;-63
2021/12/18 12:26:43;;;;;;;4.32;2.42;;;9.50;99.50;;;;;;5030217;28;20100;-63
2021/12/18 12:29:10;;;;;;;6.30;2.65;;;9.50;99.50;;;;;;5032558;28;20018;-63
2021/12/18 12:31:36;;;;;;;4.88;2.30;;;9.50;99.50;;;;;;5031101;28;20108;-64
2021/12/18 12:34:22;;;;;;;3.90;2.50;;;9.60;99.50;;;;;;5024967;28;20076;-63
2021/12/18 12:36:49;;;;;;;4.15;2.45;;;9.50;99.40;;;;;;5032234;28;20030;-63
2021/12/18 12:39:16;;;;;;;4.00;2.47;;;9.50;99.50;;;;;;5032545;28;20021;-63
2021/12/18 12:41:51;;;;;;;3.97;2.25;;;9.60;99.50;;;;;;5031240;28;20069;-63
2021/12/18 12:44:24;;;;;;;5.57;3.15;;;9.60;99.60;;;;;;5033415;28;20036;-63
2021/12/18 12:47:13;;;;;;;3.40;1.83;;;9.60;99.50;;;;;;5031933;28;20105;-63
2021/12/18 12:49:39;;;;;;;3.25;1.73;;;9.60;99.50;;;;;;5032162;28;20025;-63
2021/12/18 12:52:11;;;;;;;3.28;1.80;;;9.60;99.50;;;;;;5031304;28;20377;-63
2021/12/18 12:54:58;;;;;;;5.93;2.15;;;9.70;99.40;;;;;;5032250;28;20510;-63
2021/12/18 12:57:24;;;;;;;3.65;2.08;;;9.80;99.60;;;;;;5029300;28;20093;-63
2021/12/18 13:00:15;;;;;;;3.65;2.15;;;9.80;99.70;;;;;;5026852;28;20053;-63
2021/12/18 13:03:11;;;;;;;3.42;1.85;;;9.70;99.60;;;;;;5022243;28;20540;-63
2021/12/18 13:05:53;;;;;;;4.35;2.10;;;9.70;99.80;;;;;;5028557;28;20045;-63
2021/12/18 13:08:21;;;;;;;4.40;2.53;;;9.80;99.70;;;;;;5028398;28;20025;-63
2021/12/18 13:10:50;;;;;;;3.58;1.77;;;9.80;99.90;;;;;;5030314;28;20031;-65
2021/12/18 13:13:18;;;;;;;4.20;2.05;;;9.80;99.70;;;;;;5029767;28;20113;-63
2021/12/18 13:15:48;;;;;;;5.07;2.17;;;9.90;99.70;;;;;;5029559;28;20103;-63
2021/12/18 13:18:13;;;;;;;3.78;2.15;;;9.90;99.70;;;;;;5032104;28;20029;-63
2021/12/18 13:20:48;;;;;;;3.55;2.00;;;10.00;99.60;;;;;;5024020;28;20025;-64
2021/12/18 13:23:18;;;;;;;3.38;1.90;;;10.00;99.60;;;;;;5028140;28;20505;-64
2021/12/18 13:25:54;;;;;;;2.30;1.40;;;10.00;99.50;;;;;;5030491;28;20037;-64
2021/12/18 13:28:21;;;;;;;2.45;1.50;;;10.00;99.50;;;;;;5030890;28;20402;-63
2021/12/18 13:30:51;;;;;;;3.20;1.70;;;10.00;99.50;;;;;;5028567;28;20051;-63
2021/12/18 13:33:26;;;;;;;4.28;1.83;;;9.90;99.50;;;;;;5013729;28;20527;-64
2021/12/18 13:36:01;;;;;;;3.28;2.30;;;9.90;99.50;;;;;;5013621;28;20040;-64
2021/12/18 13:38:38;;;;;;;3.55;2.38;;;9.90;99.60;;;;;;5013945;28;20044;-64
2021/12/18 13:41:10;;;;;;;3.50;2.10;;;10.00;99.60;;;;;;5014718;28;20099;-64